createdAt,value
2023-04-02T00:00:27.160Z,1.48
2023-04-02T00:01:27.253Z,1.46
2023-04-02T00:02:27.241Z,1.49
2023-04-02T00:03:27.172Z,1.48
2023-04-02T00:04:27.068Z,1.46
2023-04-02T00:05:27.049Z,1.49
2023-04-02T00:06:27.002Z,1.48
2023-04-02T00:07:26.988Z,1.47
2023-04-02T00:08:27.004Z,1.47
2023-04-02T00:09:26.893Z,1.48
2023-04-02T00:10:26.810Z,1.48
2023-04-02T00:11:26.740Z,1.48
2023-04-02T00:12:26.651Z,1.49
2023-04-02T00:13:26.605Z,1.48
2023-04-02T00:14:26.520Z,1.49
2023-04-02T00:15:26.441Z,1.47
2023-04-02T00:16:26.452Z,1.47
2023-04-02T00:17:26.285Z,1.47
2023-04-02T00:18:26.268Z,1.47
2023-04-02T00:19:26.235Z,1.46
2023-04-02T00:20:26.121Z,1.44
2023-04-02T00:21:26.113Z,1.47
2023-04-02T00:22:26.104Z,1.45
2023-04-02T00:23:26.081Z,1.44
2023-04-02T00:24:26.051Z,1.46
2023-04-02T00:25:26.012Z,1.45
2023-04-02T00:26:25.986Z,1.45
2023-04-02T00:27:26.002Z,1.44
2023-04-02T00:28:25.981Z,1.43
2023-04-02T00:29:25.965Z,1.44
2023-04-02T00:30:25.986Z,1.42
2023-04-02T00:31:26.113Z,1.40
2023-04-02T00:32:26.008Z,1.47
2023-04-02T00:33:25.886Z,1.44
2023-04-02T00:34:25.884Z,1.42
2023-04-02T00:35:25.877Z,1.45
2023-04-02T00:36:25.869Z,1.43
2023-04-02T00:37:25.873Z,1.43
2023-04-02T00:38:25.880Z,1.44
2023-04-02T00:39:25.863Z,1.44
2023-04-02T00:40:25.848Z,1.47
2023-04-02T00:41:25.855Z,1.45
2023-04-02T00:42:25.857Z,1.42
2023-04-02T00:43:25.844Z,1.43
2023-04-02T00:44:25.864Z,1.44
2023-04-02T00:45:25.890Z,1.44
2023-04-02T00:46:25.951Z,1.46
2023-04-02T00:47:25.838Z,1.44
2023-04-02T00:48:25.830Z,1.48
2023-04-02T00:49:25.848Z,1.45
2023-04-02T00:50:25.830Z,1.46
2023-04-02T00:51:25.816Z,1.45
2023-04-02T00:52:25.814Z,1.47
2023-04-02T00:53:25.838Z,1.44
2023-04-02T00:54:25.796Z,1.47
2023-04-02T00:55:25.766Z,1.46
2023-04-02T00:56:25.772Z,1.46
2023-04-02T00:57:25.844Z,1.47
2023-04-02T00:58:25.752Z,1.46
2023-04-02T00:59:25.760Z,1.46
2023-04-02T01:00:25.747Z,1.44
2023-04-02T01:01:25.769Z,1.45
2023-04-02T01:02:25.794Z,1.47
2023-04-02T01:03:25.790Z,1.46
2023-04-02T01:04:25.722Z,1.44
2023-04-02T01:05:25.708Z,1.47
2023-04-02T01:06:25.666Z,1.45
2023-04-02T01:07:25.658Z,1.48
2023-04-02T01:08:25.583Z,1.48
2023-04-02T01:09:25.504Z,1.48
2023-04-02T01:10:25.434Z,1.48
2023-04-02T01:11:25.366Z,1.48
2023-04-02T01:12:25.303Z,1.47
2023-04-02T01:13:25.213Z,1.44
2023-04-02T01:14:25.182Z,1.45
2023-04-02T01:15:25.080Z,1.46
2023-04-02T01:16:25.079Z,1.46
2023-04-02T01:17:25.122Z,1.47
2023-04-02T01:18:25.090Z,1.46
2023-04-02T01:19:25.125Z,1.46
2023-04-02T01:20:25.092Z,1.47
2023-04-02T01:21:25.127Z,1.48
2023-04-02T01:22:25.032Z,1.43
2023-04-02T01:23:25.010Z,1.47
2023-04-02T01:24:25.016Z,1.44
2023-04-02T01:25:25.011Z,1.45
2023-04-02T01:26:24.995Z,1.46
2023-04-02T01:27:24.975Z,1.44
2023-04-02T01:28:24.968Z,1.44
2023-04-02T01:29:24.961Z,1.44
2023-04-02T01:30:24.942Z,1.45
2023-04-02T01:31:24.946Z,1.43
2023-04-02T01:32:24.971Z,1.42
2023-04-02T01:33:24.916Z,1.45
2023-04-02T01:34:25.994Z,1.43
2023-04-02T01:35:24.917Z,1.44
2023-04-02T01:36:24.926Z,1.45
2023-04-02T01:37:24.936Z,1.43
2023-04-02T01:38:24.936Z,1.45
2023-04-02T01:39:24.968Z,1.44
2023-04-02T01:40:24.918Z,1.44
2023-04-02T01:41:24.921Z,1.43
2023-04-02T01:42:24.907Z,1.44
2023-04-02T01:43:24.908Z,1.42
2023-04-02T01:44:24.993Z,1.43
2023-04-02T01:45:24.959Z,1.45
2023-04-02T01:46:24.970Z,1.41
2023-04-02T01:47:24.949Z,1.45
2023-04-02T01:48:24.941Z,1.46
2023-04-02T01:49:24.892Z,1.44
2023-04-02T01:50:24.896Z,1.44
2023-04-02T01:51:24.888Z,1.46
2023-04-02T01:52:24.888Z,1.45
2023-04-02T01:53:24.914Z,1.44
2023-04-02T01:54:24.898Z,1.46
2023-04-02T01:55:24.900Z,1.43
2023-04-02T01:56:24.904Z,1.44
2023-04-02T01:57:24.940Z,1.44
2023-04-02T01:58:24.907Z,1.46
2023-04-02T01:59:24.904Z,1.45
2023-04-02T02:00:24.915Z,1.43
2023-04-02T02:01:24.949Z,1.44
2023-04-02T02:02:24.940Z,1.45
2023-04-02T02:03:24.884Z,1.44
2023-04-02T02:04:24.874Z,1.43
2023-04-02T02:05:24.854Z,1.43
2023-04-02T02:06:24.819Z,1.43
2023-04-02T02:07:24.783Z,1.44
2023-04-02T02:08:24.782Z,1.42
2023-04-02T02:09:24.763Z,1.42
2023-04-02T02:10:24.743Z,1.44
2023-04-02T02:11:24.728Z,1.43
2023-04-02T02:12:24.728Z,1.44
2023-04-02T02:13:24.722Z,1.42
2023-04-02T02:14:24.735Z,1.43
2023-04-02T02:15:24.709Z,1.42
2023-04-02T02:16:24.788Z,1.41
2023-04-02T02:17:24.711Z,1.42
2023-04-02T02:18:24.666Z,1.41
2023-04-02T02:19:24.671Z,1.41
2023-04-02T02:20:24.650Z,1.40
2023-04-02T02:21:24.650Z,1.42
2023-04-02T02:22:24.637Z,1.41
2023-04-02T02:23:24.640Z,1.43
2023-04-02T02:24:24.628Z,1.43
2023-04-02T02:25:24.618Z,1.41
2023-04-02T02:26:24.623Z,1.40
2023-04-02T02:27:24.619Z,1.42
2023-04-02T02:28:24.617Z,1.43
2023-04-02T02:29:24.609Z,1.40
2023-04-02T02:30:24.615Z,1.41
2023-04-02T02:31:24.610Z,1.41
2023-04-02T02:32:24.607Z,1.44
2023-04-02T02:33:24.593Z,1.44
2023-04-02T02:34:24.565Z,1.42
2023-04-02T02:35:24.554Z,1.40
2023-04-02T02:36:24.562Z,1.41
2023-04-02T02:37:24.528Z,1.41
2023-04-02T02:38:24.533Z,1.38
2023-04-02T02:39:24.504Z,1.29
2023-04-02T02:40:24.497Z,1.29
2023-04-02T02:41:24.462Z,1.24
2023-04-02T02:42:24.392Z,1.21
2023-04-02T02:43:24.307Z,1.16
2023-04-02T02:44:24.261Z,1.11
2023-04-02T02:45:24.179Z,1.12
2023-04-02T02:46:24.161Z,1.05
2023-04-02T02:47:24.059Z,1.02
2023-04-02T02:48:24.053Z,0.96
2023-04-02T02:49:23.917Z,0.96
2023-04-02T02:50:23.875Z,0.96
2023-04-02T02:51:23.816Z,0.90
2023-04-02T02:52:23.736Z,0.86
2023-04-02T02:53:23.662Z,0.84
2023-04-02T02:54:23.599Z,0.83
2023-04-02T02:55:23.531Z,0.80
2023-04-02T02:56:23.472Z,0.79
2023-04-02T02:57:23.572Z,0.78
2023-04-02T02:58:23.370Z,0.76
2023-04-02T02:59:23.266Z,0.76
2023-04-02T03:00:23.210Z,0.72
2023-04-02T03:01:23.214Z,0.71
2023-04-02T03:02:23.146Z,0.69
2023-04-02T03:03:23.243Z,0.68
2023-04-02T03:04:23.067Z,0.67
2023-04-02T03:05:22.899Z,0.65
2023-04-02T03:06:22.829Z,0.64
2023-04-02T03:07:22.768Z,0.63
2023-04-02T03:08:22.718Z,0.61
2023-04-02T03:09:22.682Z,0.62
2023-04-02T03:10:22.599Z,0.59
2023-04-02T03:11:22.541Z,0.59
2023-04-02T03:12:22.474Z,0.57
2023-04-02T03:13:22.408Z,0.56
2023-04-02T03:14:22.447Z,0.54
2023-04-02T03:15:22.376Z,0.53
2023-04-02T03:16:22.432Z,0.51
2023-04-02T03:17:22.350Z,0.52
2023-04-02T03:18:22.347Z,0.51
2023-04-02T03:19:22.353Z,0.51
2023-04-02T03:20:22.315Z,0.50
2023-04-02T03:21:22.282Z,0.51
2023-04-02T03:22:22.286Z,0.51
2023-04-02T03:23:22.260Z,0.50
2023-04-02T03:24:22.239Z,0.50
2023-04-02T03:25:22.249Z,0.50
2023-04-02T03:26:22.218Z,0.50
2023-04-02T03:27:22.191Z,0.50
2023-04-02T03:28:22.184Z,0.50
2023-04-02T03:29:22.181Z,0.50
2023-04-02T03:30:22.176Z,0.51
2023-04-02T03:31:22.212Z,0.51
2023-04-02T03:32:22.130Z,0.54
2023-04-02T03:33:22.098Z,0.54
2023-04-02T03:34:22.073Z,0.55
2023-04-02T03:35:22.033Z,0.54
2023-04-02T03:36:22.106Z,0.55
2023-04-02T03:37:21.977Z,0.56
2023-04-02T03:38:21.951Z,0.56
2023-04-02T03:39:21.892Z,0.57
2023-04-02T03:40:21.857Z,0.58
2023-04-02T03:41:21.809Z,0.58
2023-04-02T03:42:21.778Z,0.58
2023-04-02T03:43:21.706Z,0.58
2023-04-02T03:44:21.677Z,0.60
2023-04-02T03:45:21.604Z,0.60
2023-04-02T03:46:21.588Z,0.60
2023-04-02T03:47:21.543Z,0.61
2023-04-02T03:48:21.411Z,0.61
2023-04-02T03:49:21.336Z,0.63
2023-04-02T03:50:21.272Z,0.64
2023-04-02T03:51:21.215Z,0.63
2023-04-02T03:52:21.137Z,0.63
2023-04-02T03:53:21.084Z,0.65
2023-04-02T03:54:21.008Z,0.64
2023-04-02T03:55:20.935Z,0.67
2023-04-02T03:56:20.869Z,0.66
2023-04-02T03:57:20.813Z,0.67
2023-04-02T03:58:20.722Z,0.67
2023-04-02T03:59:20.657Z,0.67
2023-04-02T04:00:20.618Z,0.68
2023-04-02T04:01:20.537Z,0.64
2023-04-02T04:02:20.618Z,0.60
2023-04-02T04:03:20.391Z,0.57
2023-04-02T04:04:20.505Z,0.57
2023-04-02T04:05:20.258Z,0.55
2023-04-02T04:06:20.318Z,0.53
2023-04-02T04:07:20.124Z,0.52
2023-04-02T04:08:20.057Z,0.52
2023-04-02T04:09:19.999Z,0.51
2023-04-02T04:10:19.909Z,0.51
2023-04-02T04:11:19.861Z,0.50
2023-04-02T04:12:19.786Z,0.50
2023-04-02T04:13:19.754Z,0.51
2023-04-02T04:14:19.756Z,0.51
2023-04-02T04:15:19.727Z,0.51
2023-04-02T04:16:19.770Z,0.50
2023-04-02T04:17:19.683Z,0.50
2023-04-02T04:18:19.653Z,0.50
2023-04-02T04:19:19.633Z,0.51
2023-04-02T04:20:19.619Z,0.51
2023-04-02T04:21:19.617Z,0.50
2023-04-02T04:22:19.618Z,0.50
2023-04-02T04:23:19.579Z,0.50
2023-04-02T04:24:19.579Z,0.51
2023-04-02T04:25:19.543Z,0.53
2023-04-02T04:26:19.533Z,0.54
2023-04-02T04:27:19.510Z,0.55
2023-04-02T04:28:19.467Z,0.55
2023-04-02T04:29:19.450Z,0.56
2023-04-02T04:30:19.394Z,0.58
2023-04-02T04:31:19.440Z,0.59
2023-04-02T04:32:19.450Z,0.59
2023-04-02T04:33:19.283Z,0.60
2023-04-02T04:34:19.280Z,0.61
2023-04-02T04:35:19.197Z,0.63
2023-04-02T04:36:19.246Z,0.63
2023-04-02T04:37:19.099Z,0.64
2023-04-02T04:38:19.050Z,0.65
2023-04-02T04:39:19.010Z,0.66
2023-04-02T04:40:18.950Z,0.66
2023-04-02T04:41:18.932Z,0.67
2023-04-02T04:42:18.854Z,0.68
2023-04-02T04:43:18.787Z,0.68
2023-04-02T04:44:18.751Z,0.70
2023-04-02T04:45:18.716Z,0.70
2023-04-02T04:46:18.695Z,0.72
2023-04-02T04:47:18.629Z,0.72
2023-04-02T04:48:18.511Z,0.73
2023-04-02T04:49:18.457Z,0.74
2023-04-02T04:50:18.403Z,0.74
2023-04-02T04:51:18.348Z,0.76
2023-04-02T04:52:18.276Z,0.76
2023-04-02T04:53:18.228Z,0.76
2023-04-02T04:54:18.161Z,0.77
2023-04-02T04:55:18.083Z,0.78
2023-04-02T04:56:19.672Z,0.80
2023-04-02T04:57:18.006Z,0.80
2023-04-02T04:58:17.898Z,0.79
2023-04-02T04:59:17.826Z,0.80
2023-04-02T05:00:17.763Z,0.80
2023-04-02T05:01:17.700Z,0.82
2023-04-02T05:02:17.638Z,0.82
2023-04-02T05:03:17.564Z,0.82
2023-04-02T05:04:17.522Z,0.82
2023-04-02T05:05:17.435Z,0.82
2023-04-02T05:06:17.381Z,0.81
2023-04-02T05:07:17.297Z,0.77
2023-04-02T05:08:17.233Z,0.73
2023-04-02T05:09:17.203Z,0.72
2023-04-02T05:10:17.093Z,0.70
2023-04-02T05:11:17.033Z,0.70
2023-04-02T05:12:17.009Z,0.68
2023-04-02T05:13:16.942Z,0.69
2023-04-02T05:14:16.853Z,0.70
2023-04-02T05:15:16.795Z,0.69
2023-04-02T05:16:16.798Z,0.71
2023-04-02T05:17:16.678Z,0.69
2023-04-02T05:18:16.602Z,0.70
2023-04-02T05:19:16.541Z,0.72
2023-04-02T05:20:16.554Z,0.73
2023-04-02T05:21:16.410Z,0.73
2023-04-02T05:22:16.354Z,0.73
2023-04-02T05:23:16.305Z,0.74
2023-04-02T05:24:16.199Z,0.75
2023-04-02T05:25:16.132Z,0.76
2023-04-02T05:26:16.100Z,0.78
2023-04-02T05:27:16.018Z,0.78
2023-04-02T05:28:15.960Z,0.79
2023-04-02T05:29:15.870Z,0.78
2023-04-02T05:30:15.796Z,0.78
2023-04-02T05:31:15.745Z,0.79
2023-04-02T05:32:15.663Z,0.79
2023-04-02T05:33:15.591Z,0.80
2023-04-02T05:34:15.527Z,0.78
2023-04-02T05:35:15.456Z,0.79
2023-04-02T05:36:15.474Z,0.80
2023-04-02T05:37:15.358Z,0.83
2023-04-02T05:38:15.292Z,0.85
2023-04-02T05:39:15.199Z,0.84
2023-04-02T05:40:15.141Z,0.85
2023-04-02T05:41:15.066Z,0.87
2023-04-02T05:42:15.003Z,0.88
2023-04-02T05:43:14.940Z,0.87
2023-04-02T05:44:14.886Z,0.88
2023-04-02T05:45:14.795Z,0.90
2023-04-02T05:46:14.765Z,0.88
2023-04-02T05:47:14.668Z,0.90
2023-04-02T05:48:14.596Z,0.89
2023-04-02T05:49:14.520Z,0.88
2023-04-02T05:50:14.444Z,0.90
2023-04-02T05:51:14.390Z,0.90
2023-04-02T05:52:14.308Z,0.88
2023-04-02T05:53:14.230Z,0.87
2023-04-02T05:54:14.159Z,0.86
2023-04-02T05:55:14.098Z,0.86
2023-04-02T05:56:14.029Z,0.84
2023-04-02T05:57:14.058Z,0.84
2023-04-02T05:58:34.695Z,0.82
2023-04-02T05:59:14.845Z,0.82
2023-04-02T06:00:13.792Z,0.81
2023-04-02T06:01:13.714Z,0.81
2023-04-02T06:02:13.815Z,0.81
2023-04-02T06:03:13.770Z,0.78
2023-04-02T06:04:13.647Z,0.80
2023-04-02T06:05:13.465Z,0.78
2023-04-02T06:06:14.695Z,0.78
2023-04-02T06:07:13.330Z,0.77
2023-04-02T06:08:13.274Z,0.75
2023-04-02T06:09:13.202Z,0.75
2023-04-02T06:10:13.166Z,0.75
2023-04-02T06:11:13.085Z,0.74
2023-04-02T06:12:13.032Z,0.73
2023-04-02T06:13:12.959Z,0.71
2023-04-02T06:14:12.893Z,0.71
2023-04-02T06:15:12.835Z,0.74
2023-04-02T06:16:12.785Z,0.75
2023-04-02T06:17:12.677Z,0.74
2023-04-02T06:18:12.627Z,0.75
2023-04-02T06:19:12.564Z,0.75
2023-04-02T06:20:12.532Z,0.77
2023-04-02T06:21:12.498Z,0.78
2023-04-02T06:22:12.459Z,0.78
2023-04-02T06:23:12.432Z,0.79
2023-04-02T06:24:12.344Z,0.80
2023-04-02T06:25:12.296Z,0.80
2023-04-02T06:26:12.228Z,0.79
2023-04-02T06:27:12.161Z,0.79
2023-04-02T06:28:12.102Z,0.81
2023-04-02T06:29:12.033Z,0.81
2023-04-02T06:30:11.969Z,0.82
2023-04-02T06:31:11.936Z,0.84
2023-04-02T06:32:11.853Z,0.83
2023-04-02T06:33:11.798Z,0.82
2023-04-02T06:34:11.741Z,0.83
2023-04-02T06:35:11.664Z,0.83
2023-04-02T06:36:11.623Z,0.83
2023-04-02T06:37:11.533Z,0.84
2023-04-02T06:38:11.470Z,0.85
2023-04-02T06:39:11.376Z,0.85
2023-04-02T06:40:11.309Z,0.85
2023-04-02T06:41:11.239Z,0.86
2023-04-02T06:42:11.186Z,0.86
2023-04-02T06:43:11.096Z,0.86
2023-04-02T06:44:11.025Z,0.86
2023-04-02T06:45:10.942Z,0.84
2023-04-02T06:46:10.957Z,0.81
2023-04-02T06:47:10.809Z,0.81
2023-04-02T06:48:10.797Z,0.80
2023-04-02T06:49:10.702Z,0.75
2023-04-02T06:50:10.624Z,0.74
2023-04-02T06:51:10.548Z,0.71
2023-04-02T06:52:10.505Z,0.71
2023-04-02T06:53:10.433Z,0.70
2023-04-02T06:54:10.357Z,0.69
2023-04-02T06:55:10.339Z,0.68
2023-04-02T06:56:10.233Z,0.65
2023-04-02T06:57:10.182Z,0.66
2023-04-02T06:58:10.119Z,0.65
2023-04-02T06:59:10.036Z,0.63
2023-04-02T07:00:09.978Z,0.63
2023-04-02T07:01:09.937Z,0.63
2023-04-02T07:02:09.864Z,0.62
2023-04-02T07:03:09.859Z,0.62
2023-04-02T07:04:09.725Z,0.61
2023-04-02T07:05:09.742Z,0.61
2023-04-02T07:06:09.606Z,0.61
2023-04-02T07:07:09.569Z,0.60
2023-04-02T07:08:09.493Z,0.58
2023-04-02T07:09:09.424Z,0.55
2023-04-02T07:10:09.407Z,0.55
2023-04-02T07:11:09.298Z,0.53
2023-04-02T07:12:09.220Z,0.53
2023-04-02T07:13:09.161Z,0.51
2023-04-02T07:14:09.087Z,0.46
2023-04-02T07:15:09.028Z,0.44
2023-04-02T07:16:08.994Z,0.43
2023-04-02T07:17:08.881Z,0.42
2023-04-02T07:18:08.914Z,0.50
2023-04-02T07:19:08.768Z,0.51
2023-04-02T07:20:08.707Z,0.50
2023-04-02T07:21:08.641Z,0.50
2023-04-02T07:22:08.570Z,0.52
2023-04-02T07:23:08.516Z,0.50
2023-04-02T07:24:08.459Z,0.50
2023-04-02T07:25:08.377Z,0.50
2023-04-02T07:26:08.320Z,0.50
2023-04-02T07:27:08.255Z,0.51
2023-04-02T07:28:08.192Z,0.51
2023-04-02T07:29:08.103Z,0.53
2023-04-02T07:30:08.037Z,0.51
2023-04-02T07:31:07.998Z,0.51
2023-04-02T07:32:07.946Z,0.52
2023-04-02T07:33:07.924Z,0.50
2023-04-02T07:34:07.777Z,0.50
2023-04-02T07:35:07.722Z,0.51
2023-04-02T07:36:07.729Z,0.50
2023-04-02T07:37:07.628Z,0.51
2023-04-02T07:38:07.563Z,0.51
2023-04-02T07:39:07.487Z,0.47
2023-04-02T07:40:07.418Z,0.45
2023-04-02T07:41:07.368Z,0.44
2023-04-02T07:42:07.285Z,0.42
2023-04-02T07:43:07.216Z,0.47
2023-04-02T07:44:07.138Z,0.51
2023-04-02T07:45:07.091Z,0.50
2023-04-02T07:46:07.017Z,0.50
2023-04-02T07:47:07.134Z,0.46
2023-04-02T07:48:06.947Z,0.43
2023-04-02T07:49:06.817Z,0.41
2023-04-02T07:50:06.755Z,0.37
2023-04-02T07:51:06.699Z,0.37
2023-04-02T07:52:06.632Z,0.42
2023-04-02T07:53:06.570Z,0.50
2023-04-02T07:54:06.499Z,0.50
2023-04-02T07:55:06.410Z,0.50
2023-04-02T07:56:06.360Z,0.47
2023-04-02T07:57:06.349Z,0.44
2023-04-02T07:58:06.239Z,0.42
2023-04-02T07:59:06.173Z,0.39
2023-04-02T08:00:06.064Z,0.37
2023-04-02T08:01:06.001Z,0.35
2023-04-02T08:02:06.081Z,0.34
2023-04-02T08:03:05.963Z,0.34
2023-04-02T08:04:05.835Z,0.34
2023-04-02T08:05:05.745Z,0.38
2023-04-02T08:06:05.658Z,0.43
2023-04-02T08:07:05.595Z,0.49
2023-04-02T08:08:05.542Z,0.52
2023-04-02T08:09:05.517Z,0.50
2023-04-02T08:10:05.479Z,0.50
2023-04-02T08:11:05.471Z,0.51
2023-04-02T08:12:05.473Z,0.50
2023-04-02T08:13:05.474Z,0.50
2023-04-02T08:14:05.471Z,0.50
2023-04-02T08:15:05.494Z,0.50
2023-04-02T08:16:05.474Z,0.50
2023-04-02T08:17:05.448Z,0.50
2023-04-02T08:18:05.457Z,0.51
2023-04-02T08:19:05.443Z,0.50
2023-04-02T08:20:05.427Z,0.50
2023-04-02T08:21:05.421Z,0.51
2023-04-02T08:22:05.410Z,0.50
2023-04-02T08:23:05.416Z,0.50
2023-04-02T08:24:05.403Z,0.50
2023-04-02T08:25:05.386Z,0.52
2023-04-02T08:26:05.369Z,0.56
2023-04-02T08:27:05.369Z,0.56
2023-04-02T08:28:05.357Z,0.61
2023-04-02T08:29:05.344Z,0.55
2023-04-02T08:30:05.314Z,0.56
2023-04-02T08:31:05.381Z,0.53
2023-04-02T08:32:05.264Z,0.54
2023-04-02T08:33:05.270Z,0.50
2023-04-02T08:34:05.229Z,0.50
2023-04-02T08:35:05.295Z,0.52
2023-04-02T08:36:05.229Z,0.57
2023-04-02T08:37:05.166Z,0.62
2023-04-02T08:38:05.138Z,0.63
2023-04-02T08:39:05.113Z,0.75
2023-04-02T08:40:05.090Z,0.80
2023-04-02T08:41:05.047Z,0.84
2023-04-02T08:42:05.016Z,0.88
2023-04-02T08:43:04.967Z,0.93
2023-04-02T08:44:04.946Z,0.99
2023-04-02T08:45:20.853Z,1.11
2023-04-02T08:46:05.865Z,1.12
2023-04-02T08:47:04.740Z,1.13
2023-04-02T08:48:04.706Z,1.20
2023-04-02T08:49:04.582Z,1.36
2023-04-02T08:50:04.506Z,1.67
2023-04-02T08:51:04.436Z,1.78
2023-04-02T08:52:04.364Z,1.88
2023-04-02T08:53:04.288Z,1.97
2023-04-02T08:54:04.236Z,2.06
2023-04-02T08:55:04.131Z,2.22
2023-04-02T08:56:04.051Z,2.34
2023-04-02T08:57:03.997Z,2.44
2023-04-02T08:58:03.989Z,2.60
2023-04-02T08:59:03.852Z,2.64
2023-04-02T09:00:03.777Z,2.74
2023-04-02T09:01:03.662Z,2.91
2023-04-02T09:02:03.690Z,3.11
2023-04-02T09:03:03.560Z,3.24
2023-04-02T09:04:03.440Z,3.40
2023-04-02T09:05:03.422Z,3.47
2023-04-02T09:06:03.344Z,3.62
2023-04-02T09:07:03.309Z,3.73
2023-04-02T09:08:03.282Z,3.98
2023-04-02T09:09:03.199Z,4.11
2023-04-02T09:10:03.849Z,4.23
2023-04-02T09:11:03.094Z,4.35
2023-04-02T09:12:03.052Z,4.58
2023-04-02T09:13:02.982Z,4.74
2023-04-02T09:14:02.944Z,4.93
2023-04-02T09:15:02.879Z,5.34
2023-04-02T09:16:02.886Z,5.34
2023-04-02T09:17:02.776Z,5.57
2023-04-02T09:18:02.877Z,5.67
2023-04-02T09:19:02.657Z,5.94
2023-04-02T09:20:02.610Z,6.21
2023-04-02T09:21:02.553Z,6.55
2023-04-02T09:22:02.479Z,6.70
2023-04-02T09:23:03.369Z,6.99
2023-04-02T09:24:04.679Z,7.11
2023-04-02T09:25:02.307Z,7.25
2023-04-02T09:26:04.864Z,7.63
2023-04-02T09:27:02.143Z,7.64
2023-04-02T09:28:02.055Z,7.71
2023-04-02T09:29:01.990Z,7.91
2023-04-02T09:30:01.914Z,8.15
2023-04-02T09:31:01.847Z,8.85
2023-04-02T09:32:01.801Z,9.08
2023-04-02T09:33:01.735Z,9.30
2023-04-02T09:34:01.628Z,9.42
2023-04-02T09:35:01.716Z,9.58
2023-04-02T09:36:01.499Z,9.97
2023-04-02T09:37:01.381Z,10.18
2023-04-02T09:38:01.286Z,10.22
2023-04-02T09:39:01.214Z,10.25
2023-04-02T09:40:01.152Z,10.35
2023-04-02T09:41:01.050Z,10.61
2023-04-02T09:42:05.790Z,10.97
2023-04-02T09:43:01.906Z,10.27
2023-04-02T09:44:00.813Z,10.48
2023-04-02T09:45:00.750Z,10.90
2023-04-02T09:46:00.659Z,11.58
2023-04-02T09:47:00.694Z,12.34
2023-04-02T09:48:00.527Z,12.48
2023-04-02T09:49:00.415Z,12.80
2023-04-02T09:50:00.372Z,13.23
2023-04-02T09:51:00.271Z,13.14
2023-04-02T09:52:00.178Z,13.25
2023-04-02T09:53:00.126Z,13.30
2023-04-02T09:54:00.035Z,13.55
2023-04-02T09:54:59.947Z,13.79
2023-04-02T09:55:59.856Z,13.82
2023-04-02T09:56:59.786Z,13.88
2023-04-02T09:58:02.049Z,13.95
2023-04-02T09:58:59.612Z,14.44
2023-04-02T09:59:59.547Z,14.33
2023-04-02T10:00:59.478Z,15.41
2023-04-02T10:01:59.397Z,15.09
2023-04-02T10:02:59.414Z,15.17
2023-04-02T10:03:59.355Z,15.26
2023-04-02T10:04:59.143Z,15.23
2023-04-02T10:05:59.064Z,15.61
2023-04-02T10:06:59.009Z,15.80
2023-04-02T10:07:58.929Z,15.59
2023-04-02T10:08:58.840Z,15.75
2023-04-02T10:09:58.767Z,15.65
2023-04-02T10:10:58.693Z,16.13
2023-04-02T10:11:58.598Z,16.38
2023-04-02T10:12:58.528Z,15.32
2023-04-02T10:13:58.446Z,16.02
2023-04-02T10:14:58.371Z,16.21
2023-04-02T10:15:58.298Z,16.20
2023-04-02T10:16:58.318Z,16.43
2023-04-02T10:17:58.153Z,16.45
2023-04-02T10:18:58.042Z,16.47
2023-04-02T10:19:57.968Z,16.47
2023-04-02T10:20:57.871Z,16.51
2023-04-02T10:21:57.793Z,16.33
2023-04-02T10:22:57.692Z,16.65
2023-04-02T10:23:57.595Z,16.59
2023-04-02T10:24:57.523Z,16.35
2023-04-02T10:25:57.431Z,16.53
2023-04-02T10:26:57.351Z,15.75
2023-04-02T10:27:57.268Z,16.12
2023-04-02T10:28:57.196Z,15.50
2023-04-02T10:29:57.129Z,15.97
2023-04-02T10:30:57.042Z,15.35
2023-04-02T10:31:56.989Z,15.81
2023-04-02T10:32:56.892Z,15.72
2023-04-02T10:33:56.799Z,15.76
2023-04-02T10:34:56.702Z,15.18
2023-04-02T10:35:56.653Z,15.39
2023-04-02T10:36:56.536Z,15.10
2023-04-02T10:37:56.465Z,15.36
2023-04-02T10:38:56.383Z,14.69
2023-04-02T10:39:56.297Z,15.00
2023-04-02T10:40:57.093Z,14.90
2023-04-02T10:41:56.130Z,14.92
2023-04-02T10:42:56.045Z,14.51
2023-04-02T10:43:57.846Z,14.81
2023-04-02T10:44:55.903Z,14.91
2023-04-02T10:45:55.802Z,14.41
2023-04-02T10:46:55.690Z,13.53
2023-04-02T10:47:56.418Z,13.67
2023-04-02T10:48:55.525Z,14.27
2023-04-02T10:49:55.433Z,13.34
2023-04-02T10:50:55.364Z,13.86
2023-04-02T10:51:55.276Z,13.66
2023-04-02T10:52:56.518Z,14.03
2023-04-02T10:53:55.093Z,14.07
2023-04-02T10:54:55.033Z,13.74
2023-04-02T10:55:54.970Z,13.78
2023-04-02T10:56:54.911Z,13.90
2023-04-02T10:57:54.760Z,14.09
2023-04-02T10:58:57.257Z,14.43
2023-04-02T10:59:54.601Z,14.75
2023-04-02T11:00:54.530Z,15.21
2023-04-02T11:01:54.464Z,14.98
2023-04-02T11:02:54.501Z,14.42
2023-04-02T11:03:55.848Z,15.08
2023-04-02T11:04:56.757Z,15.10
2023-04-02T11:05:54.139Z,15.10
2023-04-02T11:07:00.824Z,15.16
2023-04-02T11:07:54.942Z,15.12
2023-04-02T11:08:53.857Z,15.14
2023-04-02T11:09:53.750Z,15.20
2023-04-02T11:10:53.735Z,15.08
2023-04-02T11:11:53.630Z,14.96
2023-04-02T11:12:53.503Z,14.80
2023-04-02T11:13:53.420Z,14.32
2023-04-02T11:14:53.334Z,14.32
2023-04-02T11:15:53.266Z,14.32
2023-04-02T11:16:53.159Z,13.84
2023-04-02T11:17:53.127Z,13.57
2023-04-02T11:18:52.997Z,13.23
2023-04-02T11:19:52.908Z,13.11
2023-04-02T11:20:52.823Z,13.20
2023-04-02T11:21:59.737Z,12.87
2023-04-02T11:22:53.628Z,12.90
2023-04-02T11:23:52.542Z,12.95
2023-04-02T11:24:52.454Z,13.07
2023-04-02T11:25:52.377Z,13.10
2023-04-02T11:26:52.284Z,12.91
2023-04-02T11:27:52.210Z,13.19
2023-04-02T11:28:52.118Z,12.02
2023-04-02T11:29:52.088Z,12.53
2023-04-02T11:30:51.964Z,12.36
2023-04-02T11:31:51.952Z,12.31
2023-04-02T11:32:51.868Z,12.26
2023-04-02T11:33:51.746Z,11.93
2023-04-02T11:34:59.535Z,12.39
2023-04-02T11:35:52.599Z,12.40
2023-04-02T11:36:51.443Z,12.43
2023-04-02T11:37:51.361Z,12.51
2023-04-02T11:38:52.388Z,12.71
2023-04-02T11:39:51.227Z,12.95
2023-04-02T11:40:51.130Z,13.07
2023-04-02T11:41:51.073Z,12.95
2023-04-02T11:42:50.952Z,13.03
2023-04-02T11:43:50.907Z,13.06
2023-04-02T11:44:50.792Z,12.98
2023-04-02T11:45:53.196Z,13.05
2023-04-02T11:46:50.653Z,12.94
2023-04-02T11:47:50.614Z,12.39
2023-04-02T11:48:50.487Z,12.31
2023-04-02T11:49:50.401Z,11.86
2023-04-02T11:50:50.326Z,11.63
2023-04-02T11:51:52.399Z,11.71
2023-04-02T11:52:51.180Z,11.65
2023-04-02T11:53:50.068Z,11.34
2023-04-02T11:54:49.986Z,10.98
2023-04-02T11:55:49.920Z,10.99
2023-04-02T11:56:49.855Z,10.71
2023-04-02T11:57:49.780Z,10.60
2023-04-02T11:58:49.680Z,10.30
2023-04-02T11:59:49.584Z,10.30
2023-04-02T12:00:49.510Z,10.28
2023-04-02T12:01:49.448Z,10.36
2023-04-02T12:02:49.400Z,10.05
2023-04-02T12:03:49.274Z,10.06
2023-04-02T12:04:49.259Z,9.76
2023-04-02T12:05:49.123Z,9.59
2023-04-02T12:06:49.052Z,9.61
2023-04-02T12:07:48.975Z,9.51
2023-04-02T12:08:57.628Z,9.33
2023-04-02T12:09:49.806Z,9.33
2023-04-02T12:10:48.724Z,9.09
2023-04-02T12:11:49.878Z,9.16
2023-04-02T12:12:48.572Z,8.85
2023-04-02T12:13:48.485Z,8.74
2023-04-02T12:14:48.421Z,8.83
2023-04-02T12:15:48.394Z,8.63
2023-04-02T12:16:48.290Z,8.59
2023-04-02T12:17:48.192Z,8.65
2023-04-02T12:18:48.104Z,8.44
2023-04-02T12:19:48.073Z,8.57
2023-04-02T12:20:48.005Z,8.51
2023-04-02T12:21:47.936Z,8.62
2023-04-02T12:22:47.870Z,8.69
2023-04-02T12:23:47.826Z,8.69
2023-04-02T12:24:47.789Z,8.72
2023-04-02T12:25:47.710Z,8.70
2023-04-02T12:26:47.735Z,9.00
2023-04-02T12:27:47.606Z,9.17
2023-04-02T12:28:47.538Z,9.23
2023-04-02T12:29:47.474Z,9.36
2023-04-02T12:30:47.443Z,9.36
2023-04-02T12:31:47.375Z,9.66
2023-04-02T12:32:47.339Z,9.84
2023-04-02T12:33:47.273Z,10.02
2023-04-02T12:34:47.217Z,10.08
2023-04-02T12:35:47.162Z,10.34
2023-04-02T12:36:47.105Z,10.37
2023-04-02T12:37:47.056Z,10.23
2023-04-02T12:38:46.991Z,10.47
2023-04-02T12:39:46.927Z,10.58
2023-04-02T12:40:46.846Z,10.59
2023-04-02T12:41:46.816Z,10.59
2023-04-02T12:42:46.699Z,10.57
2023-04-02T12:43:46.641Z,10.62
2023-04-02T12:44:46.531Z,10.60
2023-04-02T12:45:46.479Z,10.64
2023-04-02T12:46:46.380Z,10.71
2023-04-02T12:47:46.332Z,10.83
2023-04-02T12:48:46.203Z,10.90
2023-04-02T12:49:46.140Z,10.95
2023-04-02T12:50:46.063Z,10.94
2023-04-02T12:51:45.972Z,10.91
2023-04-02T12:52:45.893Z,10.95
2023-04-02T12:53:45.805Z,10.92
2023-04-02T12:54:45.718Z,11.06
2023-04-02T12:55:45.639Z,11.06
2023-04-02T12:56:45.576Z,11.13
2023-04-02T12:57:45.486Z,11.03
2023-04-02T12:58:45.434Z,11.09
2023-04-02T12:59:45.335Z,11.23
2023-04-02T13:00:45.247Z,11.16
2023-04-02T13:01:45.213Z,11.28
2023-04-02T13:02:45.151Z,11.36
2023-04-02T13:03:45.018Z,11.40
2023-04-02T13:04:44.927Z,11.44
2023-04-02T13:05:44.869Z,11.51
2023-04-02T13:06:44.823Z,11.49
2023-04-02T13:07:44.746Z,11.76
2023-04-02T13:08:44.701Z,11.90
2023-04-02T13:09:44.632Z,12.10
2023-04-02T13:10:44.609Z,12.14
2023-04-02T13:11:44.559Z,12.22